»·PEaware :: UAL189 KSAN-KLAX

UAL189 :: KSAN-KLAX

FLIGHT INFORMATION

Flight Status: Arrived
Operator:
United Airlines
More flights by this operator :: More flights under this callsign
Pilot: Patricio R. (14780)
Aircraft: BOEING 737-200
(B732)
More flights by this aircraft type
Origin: KSAN San Diego Intl-Lindbergh
United States
Destination: KLAX Los Angeles Intl
United States
More flights between these airports :: More routes between these airports
Route: +PEBLE6 SLI
File this flight plan on PilotEdge
Remarks: PBN / A1B2 DOF / 180113 REG / N275SB OPR / UAL RMK / TCAS SIMBRIEF
Altitude:
(Current/Filed)
10,000ft
Speed:
(Current/Filed)
333kts
Departed: 13-Jan-18 11:48 AM
Arrived: 13-Jan-18 12:20 PM
Distance/Time
Traveled:
95nm/0:32
Distance/Time
To Go:
Arrived

Flight Plot

Page will automatically refresh every two minutes.


Map Options




Map Legend


Flown Route
Filed Route
Departure Airport
Arrival Airport
Navaid (VOR, NDB)
Fix

Horizontal Profiles

Position Reports

Time Latitude Longitude Heading Altitude Ground
Speed
13-Jan-18 11:30 32.734496 -117.203447 230 19ft 0kts
13-Jan-18 11:31 32.734496 -117.203447 230 19ft 0kts
13-Jan-18 11:32 32.734496 -117.203447 230 19ft 0kts
13-Jan-18 11:33 32.734496 -117.203447 230 19ft 0kts
13-Jan-18 11:34 32.734496 -117.203447 230 19ft 0kts
13-Jan-18 11:35 32.734496 -117.203447 230 19ft 0kts
13-Jan-18 11:36 32.734496 -117.203447 230 19ft 0kts
13-Jan-18 11:37 32.734496 -117.203447 230 19ft 0kts
13-Jan-18 11:38 32.734496 -117.203447 230 19ft 0kts
13-Jan-18 11:39 32.734496 -117.203447 230 19ft 0kts
13-Jan-18 11:40 32.734496 -117.203447 230 19ft 0kts
13-Jan-18 11:41 32.734494 -117.203450 230 19ft 0kts
13-Jan-18 11:42 32.734867 -117.203070 171 19ft 2kts
13-Jan-18 11:43 32.735039 -117.203271 103 19ft 0kts
13-Jan-18 11:44 32.735039 -117.203271 103 19ft 0kts
13-Jan-18 11:45 32.735006 -117.203103 103 19ft 0kts
13-Jan-18 11:46 32.735095 -117.202386 39 19ft 6kts
13-Jan-18 11:47 32.735208 -117.200800 104 20ft 8kts
13-Jan-18 11:48 32.734161 -117.196442 105 21ft 16kts
13-Jan-18 11:49 32.732917 -117.191300 105 22ft 16kts
13-Jan-18 11:50 32.731608 -117.185902 106 22ft 17kts
13-Jan-18 11:51 32.730220 -117.180162 105 20ft 18kts
13-Jan-18 11:52 32.729501 -117.177216 102 22ft 0kts
13-Jan-18 11:53 32.729620 -117.175767 63 26ft 6kts
13-Jan-18 11:54 32.735330 -117.199796 279 480ft 171kts
13-Jan-18 11:55 32.758660 -117.251889 308 3624ft 211kts
13-Jan-18 11:56 32.810206 -117.290770 331 7317ft 234kts
13-Jan-18 11:57 32.867340 -117.338241 301 10003ft 281kts
13-Jan-18 11:58 32.913585 -117.425595 309 9972ft 306kts
13-Jan-18 11:59 32.963667 -117.501261 309 9987ft 286kts
13-Jan-18 12:00 33.012373 -117.575667 308 9974ft 284kts
13-Jan-18 12:01 33.060610 -117.649692 308 9969ft 282kts
13-Jan-18 12:02 33.106362 -117.721178 308 9971ft 280kts
13-Jan-18 12:03 33.148241 -117.785661 308 9971ft 279kts
13-Jan-18 12:04 33.200721 -117.847141 352 9995ft 254kts
13-Jan-18 12:05 33.264890 -117.871185 333 9976ft 242kts
13-Jan-18 12:06 33.321713 -117.913490 322 9983ft 240kts
13-Jan-18 12:07 33.375446 -117.960036 328 9990ft 237kts
13-Jan-18 12:08 33.434784 -117.994294 332 9392ft 238kts
13-Jan-18 12:09 33.498401 -118.011912 352 8542ft 237kts
13-Jan-18 12:10 33.559545 -118.020919 352 7769ft 232kts
13-Jan-18 12:11 33.623146 -118.030104 353 6988ft 227kts
13-Jan-18 12:12 33.683933 -118.038323 353 6983ft 224kts
13-Jan-18 12:13 33.745938 -118.046741 353 6982ft 229kts
13-Jan-18 12:14 33.808353 -118.055200 353 6727ft 226kts
13-Jan-18 12:15 33.871002 -118.063541 353 5661ft 226kts
13-Jan-18 12:16 33.932836 -118.071589 353 4665ft 224kts
13-Jan-18 12:17 33.994121 -118.079852 353 3987ft 220kts
13-Jan-18 12:18 34.055194 -118.088675 353 3994ft 227kts
13-Jan-18 12:19 34.104637 -118.121395 276 4002ft 221kts
13-Jan-18 12:20 34.069833 -118.160928 192 4007ft 217kts
13-Jan-18 12:21 34.012608 -118.177376 205 3835ft 216kts
13-Jan-18 12:22 33.957335 -118.209891 207 2728ft 217kts
13-Jan-18 12:23 33.946423 -118.270569 279 1966ft 196kts
13-Jan-18 12:24 33.942751 -118.331919 263 966ft 163kts
13-Jan-18 12:25 33.937765 -118.378549 264 230ft 134kts
13-Jan-18 12:26 33.935677 -118.405592 293 129ft 16kts
13-Jan-18 12:27 33.935961 -118.407239 269 131ft 8kts
13-Jan-18 12:28 33.936818 -118.408979 353 133ft 6kts
13-Jan-18 12:29 33.938778 -118.408021 84 127ft 11kts
13-Jan-18 12:30 33.939237 -118.403715 83 127ft 13kts

Navigation Log

Ident Type
1. KSAN Airport
2. MELDY Fix
3. PEBLE Fix
4. SLI Navaid
5. KLAX Airport